sensor_id;sensor_type;location;lat;lon;timestamp;pressure;altitude;pressure_sealevel;temperature;humidity
73817;BME280;62146;53.232;-1.304;2022-11-13T00:01:09;101220.66;;;10.36;100.00
73817;BME280;62146;53.232;-1.304;2022-11-13T00:03:37;101226.38;;;10.33;100.00
73817;BME280;62146;53.232;-1.304;2022-11-13T00:06:04;101226.00;;;10.30;100.00
73817;BME280;62146;53.232;-1.304;2022-11-13T00:08:31;101216.63;;;10.27;100.00
73817;BME280;62146;53.232;-1.304;2022-11-13T00:11:07;101207.31;;;10.25;100.00
73817;BME280;62146;53.232;-1.304;2022-11-13T00:13:34;101213.03;;;10.22;100.00
73817;BME280;62146;53.232;-1.304;2022-11-13T00:16:03;101214.06;;;10.21;100.00
73817;BME280;62146;53.232;-1.304;2022-11-13T00:18:32;101218.75;;;10.19;100.00
73817;BME280;62146;53.232;-1.304;2022-11-13T00:21:25;101216.34;;;10.17;100.00
73817;BME280;62146;53.232;-1.304;2022-11-13T00:23:55;101215.72;;;10.16;100.00
73817;BME280;62146;53.232;-1.304;2022-11-13T00:26:27;101222.06;;;10.15;100.00
73817;BME280;62146;53.232;-1.304;2022-11-13T00:28:57;101218.00;;;10.12;100.00
73817;BME280;62146;53.232;-1.304;2022-11-13T00:31:24;101211.09;;;10.11;100.00
73817;BME280;62146;53.232;-1.304;2022-11-13T00:33:51;101209.66;;;10.09;100.00
73817;BME280;62146;53.232;-1.304;2022-11-13T00:36:38;101217.25;;;10.05;100.00
73817;BME280;62146;53.232;-1.304;2022-11-13T00:39:04;101206.84;;;10.04;100.00
73817;BME280;62146;53.232;-1.304;2022-11-13T00:41:31;101215.63;;;10.04;100.00
73817;BME280;62146;53.232;-1.304;2022-11-13T00:43:58;101221.72;;;10.05;100.00
73817;BME280;62146;53.232;-1.304;2022-11-13T00:46:24;101216.00;;;10.08;100.00
73817;BME280;62146;53.232;-1.304;2022-11-13T00:48:51;101215.41;;;10.06;100.00
73817;BME280;62146;53.232;-1.304;2022-11-13T00:51:17;101211.13;;;10.05;100.00
73817;BME280;62146;53.232;-1.304;2022-11-13T00:53:45;101200.97;;;10.02;100.00
73817;BME280;62146;53.232;-1.304;2022-11-13T00:56:11;101199.78;;;9.98;100.00
73817;BME280;62146;53.232;-1.304;2022-11-13T00:58:38;101198.59;;;9.94;100.00
73817;BME280;62146;53.232;-1.304;2022-11-13T01:01:08;101194.97;;;9.89;100.00
73817;BME280;62146;53.232;-1.304;2022-11-13T01:03:37;101183.13;;;9.85;100.00
73817;BME280;62146;53.232;-1.304;2022-11-13T01:06:16;101190.69;;;9.81;100.00
73817;BME280;62146;53.232;-1.304;2022-11-13T01:08:43;101194.22;;;9.75;100.00
73817;BME280;62146;53.232;-1.304;2022-11-13T01:11:12;101192.19;;;9.71;100.00
73817;BME280;62146;53.232;-1.304;2022-11-13T01:13:40;101187.13;;;9.69;100.00
73817;BME280;62146;53.232;-1.304;2022-11-13T01:16:09;101189.38;;;9.66;100.00
73817;BME280;62146;53.232;-1.304;2022-11-13T01:18:36;101181.66;;;9.64;100.00
73817;BME280;62146;53.232;-1.304;2022-11-13T01:21:08;101184.16;;;9.60;100.00
73817;BME280;62146;53.232;-1.304;2022-11-13T01:23:35;101187.81;;;9.59;100.00
73817;BME280;62146;53.232;-1.304;2022-11-13T01:26:07;101177.63;;;9.56;100.00
73817;BME280;62146;53.232;-1.304;2022-11-13T01:28:34;101181.53;;;9.53;100.00
73817;BME280;62146;53.232;-1.304;2022-11-13T01:31:04;101182.19;;;9.49;100.00
73817;BME280;62146;53.232;-1.304;2022-11-13T01:33:31;101177.31;;;9.46;100.00
73817;BME280;62146;53.232;-1.304;2022-11-13T01:36:00;101178.34;;;9.45;100.00
73817;BME280;62146;53.232;-1.304;2022-11-13T01:38:27;101178.75;;;9.42;100.00
73817;BME280;62146;53.232;-1.304;2022-11-13T01:40:59;101173.31;;;9.37;100.00
73817;BME280;62146;53.232;-1.304;2022-11-13T01:43:30;101175.19;;;9.30;100.00
73817;BME280;62146;53.232;-1.304;2022-11-13T01:48:30;101177.84;;;9.24;100.00
73817;BME280;62146;53.232;-1.304;2022-11-13T01:50:57;101181.94;;;9.20;100.00
73817;BME280;62146;53.232;-1.304;2022-11-13T01:53:24;101183.38;;;9.16;100.00
73817;BME280;62146;53.232;-1.304;2022-11-13T01:55:52;101175.06;;;9.12;100.00
73817;BME280;62146;53.232;-1.304;2022-11-13T01:58:19;101176.28;;;9.10;100.00
73817;BME280;62146;53.232;-1.304;2022-11-13T02:00:46;101174.88;;;9.08;100.00
73817;BME280;62146;53.232;-1.304;2022-11-13T02:03:12;101163.09;;;9.04;100.00
73817;BME280;62146;53.232;-1.304;2022-11-13T02:05:39;101168.00;;;9.00;100.00
73817;BME280;62146;53.232;-1.304;2022-11-13T02:08:05;101159.66;;;8.97;100.00
73817;BME280;62146;53.232;-1.304;2022-11-13T02:10:32;101158.47;;;8.93;100.00
73817;BME280;62146;53.232;-1.304;2022-11-13T02:12:59;101161.53;;;8.90;100.00
73817;BME280;62146;53.232;-1.304;2022-11-13T02:15:26;101159.91;;;8.89;100.00
73817;BME280;62146;53.232;-1.304;2022-11-13T02:17:56;101159.50;;;8.85;100.00
73817;BME280;62146;53.232;-1.304;2022-11-13T02:20:32;101155.44;;;8.83;100.00
73817;BME280;62146;53.232;-1.304;2022-11-13T02:25:32;101153.84;;;8.76;100.00
73817;BME280;62146;53.232;-1.304;2022-11-13T02:28:00;101146.13;;;8.74;100.00
73817;BME280;62146;53.232;-1.304;2022-11-13T02:30:29;101141.66;;;8.75;100.00
73817;BME280;62146;53.232;-1.304;2022-11-13T02:32:57;101146.75;;;8.76;100.00
73817;BME280;62146;53.232;-1.304;2022-11-13T02:35:28;101139.00;;;8.81;100.00
73817;BME280;62146;53.232;-1.304;2022-11-13T02:37:58;101138.97;;;8.87;100.00
73817;BME280;62146;53.232;-1.304;2022-11-13T02:40:25;101141.78;;;8.92;100.00
73817;BME280;62146;53.232;-1.304;2022-11-13T02:42:52;101139.16;;;8.92;100.00
73817;BME280;62146;53.232;-1.304;2022-11-13T02:45:19;101136.91;;;8.96;100.00
73817;BME280;62146;53.232;-1.304;2022-11-13T02:47:45;101127.94;;;8.97;100.00
73817;BME280;62146;53.232;-1.304;2022-11-13T02:50:12;101138.69;;;9.02;100.00
73817;BME280;62146;53.232;-1.304;2022-11-13T02:52:39;101131.34;;;9.04;100.00
73817;BME280;62146;53.232;-1.304;2022-11-13T02:55:06;101128.06;;;9.08;100.00
73817;BME280;62146;53.232;-1.304;2022-11-13T02:57:32;101137.44;;;9.10;100.00
73817;BME280;62146;53.232;-1.304;2022-11-13T02:59:59;101139.25;;;9.10;100.00
73817;BME280;62146;53.232;-1.304;2022-11-13T03:02:26;101147.41;;;9.08;100.00
73817;BME280;62146;53.232;-1.304;2022-11-13T03:04:52;101145.97;;;9.06;100.00
73817;BME280;62146;53.232;-1.304;2022-11-13T03:07:39;101137.06;;;9.01;100.00
73817;BME280;62146;53.232;-1.304;2022-11-13T03:10:07;101140.13;;;8.98;100.00
73817;BME280;62146;53.232;-1.304;2022-11-13T03:12:33;101132.59;;;8.95;100.00
73817;BME280;62146;53.232;-1.304;2022-11-13T03:15:00;101132.25;;;8.91;100.00
73817;BME280;62146;53.232;-1.304;2022-11-13T03:17:29;101130.00;;;8.88;100.00
73817;BME280;62146;53.232;-1.304;2022-11-13T03:19:57;101132.03;;;8.86;100.00
73817;BME280;62146;53.232;-1.304;2022-11-13T03:22:24;101126.34;;;8.83;100.00
73817;BME280;62146;53.232;-1.304;2022-11-13T03:24:50;101131.88;;;8.82;100.00
73817;BME280;62146;53.232;-1.304;2022-11-13T03:27:17;101122.09;;;8.82;100.00
73817;BME280;62146;53.232;-1.304;2022-11-13T03:29:44;101124.75;;;8.82;100.00
73817;BME280;62146;53.232;-1.304;2022-11-13T03:32:10;101120.25;;;8.82;100.00
73817;BME280;62146;53.232;-1.304;2022-11-13T03:34:37;101127.78;;;8.85;100.00
73817;BME280;62146;53.232;-1.304;2022-11-13T03:37:04;101133.47;;;8.89;100.00
73817;BME280;62146;53.232;-1.304;2022-11-13T03:39:30;101127.16;;;8.90;100.00
73817;BME280;62146;53.232;-1.304;2022-11-13T03:41:57;101116.31;;;8.98;100.00
73817;BME280;62146;53.232;-1.304;2022-11-13T03:44:23;101109.59;;;9.02;100.00
73817;BME280;62146;53.232;-1.304;2022-11-13T03:46:50;101103.44;;;9.08;100.00
73817;BME280;62146;53.232;-1.304;2022-11-13T03:49:17;101103.63;;;9.12;100.00
73817;BME280;62146;53.232;-1.304;2022-11-13T03:51:43;101100.94;;;9.19;100.00
73817;BME280;62146;53.232;-1.304;2022-11-13T03:54:10;101107.63;;;9.21;100.00
73817;BME280;62146;53.232;-1.304;2022-11-13T03:56:36;101104.56;;;9.24;100.00
73817;BME280;62146;53.232;-1.304;2022-11-13T03:59:03;101105.75;;;9.28;100.00
73817;BME280;62146;53.232;-1.304;2022-11-13T04:01:29;101107.75;;;9.33;100.00
73817;BME280;62146;53.232;-1.304;2022-11-13T04:03:56;101107.56;;;9.34;100.00
73817;BME280;62146;53.232;-1.304;2022-11-13T04:06:22;101105.50;;;9.36;100.00
73817;BME280;62146;53.232;-1.304;2022-11-13T04:08:49;101107.72;;;9.39;100.00
73817;BME280;62146;53.232;-1.304;2022-11-13T04:11:15;101096.91;;;9.40;100.00
73817;BME280;62146;53.232;-1.304;2022-11-13T04:13:42;101098.31;;;9.43;100.00
73817;BME280;62146;53.232;-1.304;2022-11-13T04:16:08;101098.94;;;9.45;100.00
73817;BME280;62146;53.232;-1.304;2022-11-13T04:18:35;101095.81;;;9.48;100.00
73817;BME280;62146;53.232;-1.304;2022-11-13T04:21:03;101097.47;;;9.49;100.00
73817;BME280;62146;53.232;-1.304;2022-11-13T04:23:30;101088.50;;;9.50;100.00
73817;BME280;62146;53.232;-1.304;2022-11-13T04:25:57;101100.28;;;9.54;100.00
73817;BME280;62146;53.232;-1.304;2022-11-13T04:28:24;101092.91;;;9.56;100.00
73817;BME280;62146;53.232;-1.304;2022-11-13T04:30:54;101097.34;;;9.62;100.00
73817;BME280;62146;53.232;-1.304;2022-11-13T04:33:21;101098.16;;;9.62;100.00
73817;BME280;62146;53.232;-1.304;2022-11-13T04:35:47;101091.41;;;9.66;100.00
73817;BME280;62146;53.232;-1.304;2022-11-13T04:38:14;101083.47;;;9.66;100.00
73817;BME280;62146;53.232;-1.304;2022-11-13T04:40:41;101081.19;;;9.69;100.00
73817;BME280;62146;53.232;-1.304;2022-11-13T04:43:08;101085.25;;;9.72;100.00
73817;BME280;62146;53.232;-1.304;2022-11-13T04:45:35;101084.00;;;9.74;100.00
73817;BME280;62146;53.232;-1.304;2022-11-13T04:48:02;101077.47;;;9.77;100.00
73817;BME280;62146;53.232;-1.304;2022-11-13T04:50:29;101067.69;;;9.77;100.00
73817;BME280;62146;53.232;-1.304;2022-11-13T04:52:56;101064.38;;;9.82;100.00
73817;BME280;62146;53.232;-1.304;2022-11-13T04:55:22;101066.81;;;9.83;100.00
73817;BME280;62146;53.232;-1.304;2022-11-13T04:57:49;101062.72;;;9.87;100.00
73817;BME280;62146;53.232;-1.304;2022-11-13T05:00:20;101053.50;;;9.89;100.00
73817;BME280;62146;53.232;-1.304;2022-11-13T05:02:46;101055.16;;;9.90;100.00
73817;BME280;62146;53.232;-1.304;2022-11-13T05:05:13;101052.06;;;9.93;100.00
73817;BME280;62146;53.232;-1.304;2022-11-13T05:07:39;101054.25;;;9.96;100.00
73817;BME280;62146;53.232;-1.304;2022-11-13T05:10:08;101048.78;;;9.98;100.00
73817;BME280;62146;53.232;-1.304;2022-11-13T05:12:34;101046.47;;;10.01;100.00
73817;BME280;62146;53.232;-1.304;2022-11-13T05:15:01;101052.59;;;10.02;100.00
73817;BME280;62146;53.232;-1.304;2022-11-13T05:17:28;101045.22;;;10.04;100.00
73817;BME280;62146;53.232;-1.304;2022-11-13T05:19:54;101049.47;;;10.05;100.00
73817;BME280;62146;53.232;-1.304;2022-11-13T05:22:21;101050.09;;;10.07;100.00
73817;BME280;62146;53.232;-1.304;2022-11-13T05:24:47;101047.22;;;10.08;100.00
73817;BME280;62146;53.232;-1.304;2022-11-13T05:27:14;101051.25;;;10.11;100.00
73817;BME280;62146;53.232;-1.304;2022-11-13T05:29:43;101038.59;;;10.13;100.00
73817;BME280;62146;53.232;-1.304;2022-11-13T05:32:10;101043.88;;;10.13;100.00
73817;BME280;62146;53.232;-1.304;2022-11-13T05:34:36;101050.59;;;10.15;100.00
73817;BME280;62146;53.232;-1.304;2022-11-13T05:37:03;101052.22;;;10.16;100.00
73817;BME280;62146;53.232;-1.304;2022-11-13T05:39:29;101056.03;;;10.20;100.00
73817;BME280;62146;53.232;-1.304;2022-11-13T05:41:56;101054.44;;;10.19;100.00
73817;BME280;62146;53.232;-1.304;2022-11-13T05:44:22;101062.16;;;10.20;100.00
73817;BME280;62146;53.232;-1.304;2022-11-13T05:46:49;101050.53;;;10.21;100.00
73817;BME280;62146;53.232;-1.304;2022-11-13T05:49:15;101051.34;;;10.22;100.00
73817;BME280;62146;53.232;-1.304;2022-11-13T05:51:42;101052.97;;;10.23;100.00
73817;BME280;62146;53.232;-1.304;2022-11-13T05:54:08;101046.63;;;10.24;100.00
73817;BME280;62146;53.232;-1.304;2022-11-13T05:56:36;101051.72;;;10.25;100.00
73817;BME280;62146;53.232;-1.304;2022-11-13T05:59:03;101057.59;;;10.27;100.00
73817;BME280;62146;53.232;-1.304;2022-11-13T06:01:36;101053.94;;;10.28;100.00
73817;BME280;62146;53.232;-1.304;2022-11-13T06:04:04;101062.69;;;10.29;100.00
73817;BME280;62146;53.232;-1.304;2022-11-13T06:06:32;101053.47;;;10.31;100.00
73817;BME280;62146;53.232;-1.304;2022-11-13T06:09:02;101050.59;;;10.33;100.00
73817;BME280;62146;53.232;-1.304;2022-11-13T06:11:29;101043.66;;;10.32;100.00
73817;BME280;62146;53.232;-1.304;2022-11-13T06:13:57;101040.56;;;10.35;100.00
73817;BME280;62146;53.232;-1.304;2022-11-13T06:16:26;101032.84;;;10.33;100.00
73817;BME280;62146;53.232;-1.304;2022-11-13T06:18:54;101037.72;;;10.36;100.00
73817;BME280;62146;53.232;-1.304;2022-11-13T06:21:25;101033.44;;;10.35;100.00
73817;BME280;62146;53.232;-1.304;2022-11-13T06:23:51;101044.63;;;10.37;100.00
73817;BME280;62146;53.232;-1.304;2022-11-13T06:26:21;101035.63;;;10.38;100.00
73817;BME280;62146;53.232;-1.304;2022-11-13T06:28:48;101031.94;;;10.39;100.00
73817;BME280;62146;53.232;-1.304;2022-11-13T06:31:17;101019.75;;;10.38;100.00
73817;BME280;62146;53.232;-1.304;2022-11-13T06:33:44;101024.59;;;10.41;100.00
73817;BME280;62146;53.232;-1.304;2022-11-13T06:36:23;101025.63;;;10.40;100.00
73817;BME280;62146;53.232;-1.304;2022-11-13T06:38:50;101024.59;;;10.41;100.00
73817;BME280;62146;53.232;-1.304;2022-11-13T06:41:19;101021.16;;;10.41;100.00
73817;BME280;62146;53.232;-1.304;2022-11-13T06:43:47;101028.06;;;10.42;100.00
73817;BME280;62146;53.232;-1.304;2022-11-13T06:46:16;101031.31;;;10.43;100.00
73817;BME280;62146;53.232;-1.304;2022-11-13T06:48:43;101026.00;;;10.43;100.00
73817;BME280;62146;53.232;-1.304;2022-11-13T06:51:15;101027.63;;;10.44;100.00
73817;BME280;62146;53.232;-1.304;2022-11-13T06:53:42;101031.88;;;10.45;100.00
73817;BME280;62146;53.232;-1.304;2022-11-13T06:56:10;101028.41;;;10.45;100.00
73817;BME280;62146;53.232;-1.304;2022-11-13T06:58:37;101031.88;;;10.45;100.00
73817;BME280;62146;53.232;-1.304;2022-11-13T07:01:06;101025.78;;;10.45;100.00
73817;BME280;62146;53.232;-1.304;2022-11-13T07:03:34;101031.06;;;10.45;100.00
73817;BME280;62146;53.232;-1.304;2022-11-13T07:06:02;101027.63;;;10.44;100.00
73817;BME280;62146;53.232;-1.304;2022-11-13T07:08:30;101034.53;;;10.45;100.00
73817;BME280;62146;53.232;-1.304;2022-11-13T07:10:58;101029.00;;;10.47;100.00
73817;BME280;62146;53.232;-1.304;2022-11-13T07:13:26;101029.84;;;10.47;100.00
73817;BME280;62146;53.232;-1.304;2022-11-13T07:15:53;101024.53;;;10.47;100.00
73817;BME280;62146;53.232;-1.304;2022-11-13T07:18:19;101031.44;;;10.48;100.00
73817;BME280;62146;53.232;-1.304;2022-11-13T07:20:49;101030.41;;;10.49;100.00
73817;BME280;62146;53.232;-1.304;2022-11-13T07:23:16;101035.47;;;10.51;100.00
73817;BME280;62146;53.232;-1.304;2022-11-13T07:25:42;101041.00;;;10.49;100.00
73817;BME280;62146;53.232;-1.304;2022-11-13T07:28:09;101037.31;;;10.50;100.00
73817;BME280;62146;53.232;-1.304;2022-11-13T07:30:36;101036.50;;;10.50;100.00
73817;BME280;62146;53.232;-1.304;2022-11-13T07:33:03;101041.38;;;10.53;100.00
73817;BME280;62146;53.232;-1.304;2022-11-13T07:35:30;101037.91;;;10.52;100.00
73817;BME280;62146;53.232;-1.304;2022-11-13T07:37:57;101048.28;;;10.54;100.00
73817;BME280;62146;53.232;-1.304;2022-11-13T07:40:24;101031.56;;;10.53;100.00
73817;BME280;62146;53.232;-1.304;2022-11-13T07:43:00;101042.19;;;10.53;100.00
73817;BME280;62146;53.232;-1.304;2022-11-13T07:45:27;101043.78;;;10.54;100.00
73817;BME280;62146;53.232;-1.304;2022-11-13T07:47:58;101042.78;;;10.55;100.00
73817;BME280;62146;53.232;-1.304;2022-11-13T07:50:31;101043.59;;;10.56;100.00
73817;BME280;62146;53.232;-1.304;2022-11-13T07:53:00;101047.28;;;10.55;100.00
73817;BME280;62146;53.232;-1.304;2022-11-13T07:55:27;101055.81;;;10.57;100.00
73817;BME280;62146;53.232;-1.304;2022-11-13T07:57:56;101057.66;;;10.56;100.00
73817;BME280;62146;53.232;-1.304;2022-11-13T08:00:24;101069.88;;;10.57;100.00
73817;BME280;62146;53.232;-1.304;2022-11-13T08:02:51;101061.72;;;10.59;100.00
73817;BME280;62146;53.232;-1.304;2022-11-13T08:05:18;101058.81;;;10.60;100.00
73817;BME280;62146;53.232;-1.304;2022-11-13T08:07:48;101064.94;;;10.61;100.00
73817;BME280;62146;53.232;-1.304;2022-11-13T08:10:18;101065.75;;;10.61;100.00
73817;BME280;62146;53.232;-1.304;2022-11-13T08:12:45;101049.81;;;10.61;100.00
73817;BME280;62146;53.232;-1.304;2022-11-13T08:15:12;101036.34;;;10.63;100.00
73817;BME280;62146;53.232;-1.304;2022-11-13T08:17:39;101054.69;;;10.64;100.00
73817;BME280;62146;53.232;-1.304;2022-11-13T08:20:06;101054.44;;;10.66;100.00
73817;BME280;62146;53.232;-1.304;2022-11-13T08:22:34;101058.75;;;10.67;100.00
73817;BME280;62146;53.232;-1.304;2022-11-13T08:25:00;101061.16;;;10.68;100.00
73817;BME280;62146;53.232;-1.304;2022-11-13T08:27:27;101054.63;;;10.70;100.00
73817;BME280;62146;53.232;-1.304;2022-11-13T08:29:53;101048.25;;;10.71;100.00
73817;BME280;62146;53.232;-1.304;2022-11-13T08:32:20;101050.91;;;10.71;100.00
73817;BME280;62146;53.232;-1.304;2022-11-13T08:34:47;101043.53;;;10.73;100.00
73817;BME280;62146;53.232;-1.304;2022-11-13T08:37:14;101038.81;;;10.75;100.00
73817;BME280;62146;53.232;-1.304;2022-11-13T08:39:41;101042.03;;;10.77;100.00
73817;BME280;62146;53.232;-1.304;2022-11-13T08:42:08;101036.75;;;10.77;100.00
73817;BME280;62146;53.232;-1.304;2022-11-13T08:44:34;101029.38;;;10.79;100.00
73817;BME280;62146;53.232;-1.304;2022-11-13T08:47:01;101024.66;;;10.81;100.00
73817;BME280;62146;53.232;-1.304;2022-11-13T08:49:27;101026.28;;;10.82;100.00
73817;BME280;62146;53.232;-1.304;2022-11-13T08:51:54;101020.75;;;10.84;100.00
73817;BME280;62146;53.232;-1.304;2022-11-13T08:54:20;101020.53;;;10.85;100.00
73817;BME280;62146;53.232;-1.304;2022-11-13T08:56:47;101018.69;;;10.86;100.00
73817;BME280;62146;53.232;-1.304;2022-11-13T08:59:21;101021.91;;;10.88;100.00
73817;BME280;62146;53.232;-1.304;2022-11-13T09:01:52;101027.00;;;10.89;100.00
73817;BME280;62146;53.232;-1.304;2022-11-13T09:04:25;101018.81;;;10.91;100.00
73817;BME280;62146;53.232;-1.304;2022-11-13T09:06:51;101018.00;;;10.90;100.00
73817;BME280;62146;53.232;-1.304;2022-11-13T09:09:18;101006.09;;;10.93;100.00
73817;BME280;62146;53.232;-1.304;2022-11-13T09:11:45;101013.84;;;10.94;100.00
73817;BME280;62146;53.232;-1.304;2022-11-13T09:14:12;101015.47;;;10.95;100.00
73817;BME280;62146;53.232;-1.304;2022-11-13T09:16:39;101023.56;;;11.00;100.00
73817;BME280;62146;53.232;-1.304;2022-11-13T09:19:06;101030.50;;;11.01;100.00
73817;BME280;62146;53.232;-1.304;2022-11-13T09:21:32;101026.56;;;11.03;100.00
73817;BME280;62146;53.232;-1.304;2022-11-13T09:23:59;101023.69;;;11.05;100.00
73817;BME280;62146;53.232;-1.304;2022-11-13T09:26:25;101026.91;;;11.07;100.00
73817;BME280;62146;53.232;-1.304;2022-11-13T09:28:52;101023.81;;;11.10;100.00
73817;BME280;62146;53.232;-1.304;2022-11-13T09:31:18;101024.63;;;11.10;100.00
73817;BME280;62146;53.232;-1.304;2022-11-13T09:33:45;101020.72;;;11.13;100.00
73817;BME280;62146;53.232;-1.304;2022-11-13T09:36:13;101021.28;;;11.15;100.00
73817;BME280;62146;53.232;-1.304;2022-11-13T09:38:40;101020.28;;;11.16;100.00
73817;BME280;62146;53.232;-1.304;2022-11-13T09:41:10;101015.97;;;11.15;100.00
73817;BME280;62146;53.232;-1.304;2022-11-13T09:43:54;101006.50;;;11.19;100.00
73817;BME280;62146;53.232;-1.304;2022-11-13T09:49:27;101008.28;;;11.24;100.00
73817;BME280;62146;53.232;-1.304;2022-11-13T09:51:58;101006.19;;;11.26;100.00
73817;BME280;62146;53.232;-1.304;2022-11-13T09:54:32;101006.19;;;11.26;100.00
73817;BME280;62146;53.232;-1.304;2022-11-13T09:57:20;101005.72;;;11.29;100.00
73817;BME280;62146;53.232;-1.304;2022-11-13T10:00:14;101008.97;;;11.31;100.00
73817;BME280;62146;53.232;-1.304;2022-11-13T10:05:48;101002.16;;;11.35;100.00
73817;BME280;62146;53.232;-1.304;2022-11-13T10:08:22;101007.03;;;11.38;100.00
73817;BME280;62146;53.232;-1.304;2022-11-13T10:11:01;101007.63;;;11.40;100.00
73817;BME280;62146;53.232;-1.304;2022-11-13T10:13:52;100998.59;;;11.41;100.00
73817;BME280;62146;53.232;-1.304;2022-11-13T10:16:36;101001.84;;;11.43;100.00
73817;BME280;62146;53.232;-1.304;2022-11-13T10:21:50;101003.22;;;11.46;100.00
73817;BME280;62146;53.232;-1.304;2022-11-13T10:24:41;101007.28;;;11.48;100.00
73817;BME280;62146;53.232;-1.304;2022-11-13T10:27:12;101005.78;;;11.52;100.00
73817;BME280;62146;53.232;-1.304;2022-11-13T10:29:39;101007.97;;;11.55;100.00
73817;BME280;62146;53.232;-1.304;2022-11-13T10:34:49;101008.09;;;11.60;100.00
73817;BME280;62146;53.232;-1.304;2022-11-13T10:39:49;100999.06;;;11.61;100.00
73817;BME280;62146;53.232;-1.304;2022-11-13T10:42:26;100996.41;;;11.61;100.00
73817;BME280;62146;53.232;-1.304;2022-11-13T10:44:59;100998.63;;;11.64;100.00
73817;BME280;62146;53.232;-1.304;2022-11-13T10:47:29;100996.75;;;11.64;100.00
73817;BME280;62146;53.232;-1.304;2022-11-13T10:50:50;100986.50;;;11.68;100.00
73817;BME280;62146;53.232;-1.304;2022-11-13T10:53:18;100987.06;;;11.70;100.00
73817;BME280;62146;53.232;-1.304;2022-11-13T10:55:45;100981.53;;;11.71;100.00
73817;BME280;62146;53.232;-1.304;2022-11-13T10:58:17;100982.91;;;11.74;100.00
73817;BME280;62146;53.232;-1.304;2022-11-13T11:00:45;100981.88;;;11.75;100.00
73817;BME280;62146;53.232;-1.304;2022-11-13T11:03:18;100972.63;;;11.77;100.00
73817;BME280;62146;53.232;-1.304;2022-11-13T11:05:57;100968.69;;;11.79;100.00
73817;BME280;62146;53.232;-1.304;2022-11-13T11:08:28;100973.53;;;11.82;100.00
73817;BME280;62146;53.232;-1.304;2022-11-13T11:10:58;100973.88;;;11.86;100.00
73817;BME280;62146;53.232;-1.304;2022-11-13T11:13:44;100962.78;;;11.89;100.00
73817;BME280;62146;53.232;-1.304;2022-11-13T11:16:16;100968.91;;;11.89;100.00
73817;BME280;62146;53.232;-1.304;2022-11-13T11:18:51;100965.19;;;11.90;100.00
73817;BME280;62146;53.232;-1.304;2022-11-13T11:21:22;100968.44;;;11.92;100.00
73817;BME280;62146;53.232;-1.304;2022-11-13T11:24:02;100955.38;;;11.91;100.00
73817;BME280;62146;53.232;-1.304;2022-11-13T11:29:17;100951.53;;;11.98;100.00
73817;BME280;62146;53.232;-1.304;2022-11-13T11:34:41;100944.25;;;12.05;100.00
73817;BME280;62146;53.232;-1.304;2022-11-13T11:37:14;100933.38;;;12.06;100.00
73817;BME280;62146;53.232;-1.304;2022-11-13T11:39:49;100927.03;;;12.07;100.00
73817;BME280;62146;53.232;-1.304;2022-11-13T11:47:42;100914.63;;;12.13;100.00
73817;BME280;62146;53.232;-1.304;2022-11-13T11:50:12;100897.63;;;12.14;100.00
73817;BME280;62146;53.232;-1.304;2022-11-13T11:58:27;100908.94;;;12.21;100.00
73817;BME280;62146;53.232;-1.304;2022-11-13T12:01:04;100914.59;;;12.24;100.00
73817;BME280;62146;53.232;-1.304;2022-11-13T12:03:40;100918.06;;;12.25;100.00
73817;BME280;62146;53.232;-1.304;2022-11-13T12:06:21;100911.47;;;12.27;100.00
73817;BME280;62146;53.232;-1.304;2022-11-13T12:09:02;100909.59;;;12.28;100.00
73817;BME280;62146;53.232;-1.304;2022-11-13T12:11:43;100898.16;;;12.27;100.00
73817;BME280;62146;53.232;-1.304;2022-11-13T12:20:36;100875.13;;;12.32;100.00
73817;BME280;62146;53.232;-1.304;2022-11-13T12:34:16;100876.06;;;12.54;100.00
73817;BME280;62146;53.232;-1.304;2022-11-13T12:36:45;100876.38;;;12.57;100.00
73817;BME280;62146;53.232;-1.304;2022-11-13T12:42:11;100862.91;;;12.64;100.00
73817;BME280;62146;53.232;-1.304;2022-11-13T12:44:48;100855.75;;;12.64;100.00
73817;BME280;62146;53.232;-1.304;2022-11-13T12:47:18;100861.63;;;12.66;100.00
73817;BME280;62146;53.232;-1.304;2022-11-13T12:49:45;100855.03;;;12.69;100.00
73817;BME280;62146;53.232;-1.304;2022-11-13T12:54:41;100845.84;;;12.76;100.00
73817;BME280;62146;53.232;-1.304;2022-11-13T12:59:54;100825.75;;;12.85;100.00
73817;BME280;62146;53.232;-1.304;2022-11-13T13:10:56;100821.31;;;12.90;100.00
73817;BME280;62146;53.232;-1.304;2022-11-13T13:13:52;100817.09;;;12.94;100.00
73817;BME280;62146;53.232;-1.304;2022-11-13T13:16:27;100807.03;;;12.96;100.00
73817;BME280;62146;53.232;-1.304;2022-11-13T13:19:26;100809.69;;;12.96;100.00
73817;BME280;62146;53.232;-1.304;2022-11-13T13:21:54;100802.25;;;12.98;100.00
73817;BME280;62146;53.232;-1.304;2022-11-13T13:24:32;100803.09;;;12.99;100.00
73817;BME280;62146;53.232;-1.304;2022-11-13T13:26:59;100802.81;;;13.00;100.00
73817;BME280;62146;53.232;-1.304;2022-11-13T13:29:27;100794.84;;;13.00;100.00
73817;BME280;62146;53.232;-1.304;2022-11-13T13:35:13;100786.59;;;13.02;100.00
73817;BME280;62146;53.232;-1.304;2022-11-13T13:38:18;100782.06;;;13.02;100.00
73817;BME280;62146;53.232;-1.304;2022-11-13T13:41:04;100772.00;;;13.04;100.00
73817;BME280;62146;53.232;-1.304;2022-11-13T13:46:21;100786.69;;;13.07;100.00
73817;BME280;62146;53.232;-1.304;2022-11-13T13:48:52;100770.44;;;13.08;100.00
73817;BME280;62146;53.232;-1.304;2022-11-13T13:53:55;100765.69;;;13.10;100.00
73817;BME280;62146;53.232;-1.304;2022-11-13T13:56:24;100759.84;;;13.13;100.00
73817;BME280;62146;53.232;-1.304;2022-11-13T13:58:52;100757.19;;;13.13;100.00
73817;BME280;62146;53.232;-1.304;2022-11-13T14:01:35;100756.16;;;13.14;100.00
73817;BME280;62146;53.232;-1.304;2022-11-13T14:04:15;100754.31;;;13.14;100.00